sensor_id;sensor_type;location;lat;lon;timestamp;pressure;altitude;pressure_sealevel;temperature;humidity
72950;BME280;64868;45.710;9.590;2023-03-26T00:00:11;98433.22;;;11.33;31.82
72950;BME280;64868;45.710;9.590;2023-03-26T00:02:45;98442.38;;;11.32;31.57
72950;BME280;64868;45.710;9.590;2023-03-26T00:05:15;98449.31;;;11.36;32.12
72950;BME280;64868;45.710;9.590;2023-03-26T00:07:47;98453.19;;;11.34;32.55
72950;BME280;64868;45.710;9.590;2023-03-26T00:10:18;98449.09;;;11.28;33.50
72950;BME280;64868;45.710;9.590;2023-03-26T00:12:50;98423.03;;;11.14;32.56
72950;BME280;64868;45.710;9.590;2023-03-26T00:15:23;98414.63;;;11.06;32.75
72950;BME280;64868;45.710;9.590;2023-03-26T00:17:51;98445.06;;;11.23;32.41
72950;BME280;64868;45.710;9.590;2023-03-26T00:20:23;98426.75;;;11.34;31.66
72950;BME280;64868;45.710;9.590;2023-03-26T00:22:53;98439.81;;;11.31;31.71
72950;BME280;64868;45.710;9.590;2023-03-26T00:25:26;98449.91;;;11.19;32.78
72950;BME280;64868;45.710;9.590;2023-03-26T00:27:56;98429.28;;;10.94;34.36
72950;BME280;64868;45.710;9.590;2023-03-26T00:30:29;98450.41;;;10.69;35.44
72950;BME280;64868;45.710;9.590;2023-03-26T00:32:56;98428.78;;;10.34;36.13
72950;BME280;64868;45.710;9.590;2023-03-26T00:35:26;98453.19;;;10.47;35.31
72950;BME280;64868;45.710;9.590;2023-03-26T00:37:59;98451.69;;;10.54;34.98
72950;BME280;64868;45.710;9.590;2023-03-26T00:40:30;98456.91;;;10.46;34.75
72950;BME280;64868;45.710;9.590;2023-03-26T00:43:02;98430.28;;;10.38;34.83
72950;BME280;64868;45.710;9.590;2023-03-26T00:45:36;98451.44;;;10.46;34.04
72950;BME280;64868;45.710;9.590;2023-03-26T00:48:08;98436.34;;;10.42;34.99
72950;BME280;64868;45.710;9.590;2023-03-26T00:50:41;98465.53;;;10.62;34.14
72950;BME280;64868;45.710;9.590;2023-03-26T00:53:10;98463.53;;;10.64;34.05
72950;BME280;64868;45.710;9.590;2023-03-26T00:55:43;98458.97;;;10.65;33.57
72950;BME280;64868;45.710;9.590;2023-03-26T00:58:16;98437.19;;;10.97;33.26
72950;BME280;64868;45.710;9.590;2023-03-26T01:00:46;98445.16;;;10.89;33.83
72950;BME280;64868;45.710;9.590;2023-03-26T01:03:20;98458.81;;;10.78;34.35
72950;BME280;64868;45.710;9.590;2023-03-26T01:05:54;98448.41;;;10.71;33.93
72950;BME280;64868;45.710;9.590;2023-03-26T01:08:29;98443.56;;;10.75;33.27
72950;BME280;64868;45.710;9.590;2023-03-26T01:10:59;98438.25;;;10.74;34.23
72950;BME280;64868;45.710;9.590;2023-03-26T01:13:36;98421.47;;;10.57;34.25
72950;BME280;64868;45.710;9.590;2023-03-26T01:16:09;98426.53;;;10.51;35.19
72950;BME280;64868;45.710;9.590;2023-03-26T01:18:49;98431.50;;;10.45;35.10
72950;BME280;64868;45.710;9.590;2023-03-26T01:21:21;98429.53;;;10.36;35.56
72950;BME280;64868;45.710;9.590;2023-03-26T01:24:00;98416.75;;;10.26;35.59
72950;BME280;64868;45.710;9.590;2023-03-26T01:29:10;98402.38;;;10.23;35.81
72950;BME280;64868;45.710;9.590;2023-03-26T01:34:44;98395.84;;;10.26;36.75
72950;BME280;64868;45.710;9.590;2023-03-26T01:37:41;98405.34;;;10.09;37.91
72950;BME280;64868;45.710;9.590;2023-03-26T01:40:24;98401.16;;;10.05;37.84
72950;BME280;64868;45.710;9.590;2023-03-26T01:45:43;98398.66;;;9.80;39.58
72950;BME280;64868;45.710;9.590;2023-03-26T01:48:14;98388.75;;;9.67;38.98
72950;BME280;64868;45.710;9.590;2023-03-26T01:50:44;98382.56;;;9.65;39.20
72950;BME280;64868;45.710;9.590;2023-03-26T01:53:17;98371.03;;;9.50;38.90
72950;BME280;64868;45.710;9.590;2023-03-26T02:07:38;98391.16;;;9.25;39.87
72950;BME280;64868;45.710;9.590;2023-03-26T02:10:29;98386.94;;;9.21;40.35
72950;BME280;64868;45.710;9.590;2023-03-26T02:13:00;98382.31;;;9.11;39.92
72950;BME280;64868;45.710;9.590;2023-03-26T02:15:32;98384.69;;;9.15;40.90
72950;BME280;64868;45.710;9.590;2023-03-26T02:18:02;98389.13;;;9.16;40.88
72950;BME280;64868;45.710;9.590;2023-03-26T02:20:35;98379.06;;;8.94;41.91
72950;BME280;64868;45.710;9.590;2023-03-26T02:23:05;98402.41;;;8.97;41.30
72950;BME280;64868;45.710;9.590;2023-03-26T02:25:38;98381.38;;;8.88;40.25
72950;BME280;64868;45.710;9.590;2023-03-26T02:28:06;98385.72;;;8.90;40.36
72950;BME280;64868;45.710;9.590;2023-03-26T02:30:38;98405.44;;;9.16;39.09
72950;BME280;64868;45.710;9.590;2023-03-26T02:33:11;98394.47;;;9.18;38.98
72950;BME280;64868;45.710;9.590;2023-03-26T02:35:41;98404.94;;;9.11;39.64
72950;BME280;64868;45.710;9.590;2023-03-26T02:38:14;98397.53;;;9.13;39.16
72950;BME280;64868;45.710;9.590;2023-03-26T02:40:47;98399.72;;;9.08;39.16
72950;BME280;64868;45.710;9.590;2023-03-26T02:43:14;98400.38;;;9.12;38.92
72950;BME280;64868;45.710;9.590;2023-03-26T02:45:47;98392.75;;;9.17;38.72
72950;BME280;64868;45.710;9.590;2023-03-26T02:48:17;98397.00;;;9.32;37.96
72950;BME280;64868;45.710;9.590;2023-03-26T02:50:49;98393.34;;;9.20;38.14
72950;BME280;64868;45.710;9.590;2023-03-26T02:53:23;98394.06;;;9.11;37.60
72950;BME280;64868;45.710;9.590;2023-03-26T02:55:57;98405.84;;;9.23;38.35
72950;BME280;64868;45.710;9.590;2023-03-26T02:58:30;98402.66;;;9.29;38.05
72950;BME280;64868;45.710;9.590;2023-03-26T03:01:02;98400.25;;;9.13;38.88
72950;BME280;64868;45.710;9.590;2023-03-26T03:03:32;98414.38;;;9.18;38.16
72950;BME280;64868;45.710;9.590;2023-03-26T03:06:05;98409.66;;;9.09;38.32
72950;BME280;64868;45.710;9.590;2023-03-26T03:08:38;98421.88;;;9.15;39.23
72950;BME280;64868;45.710;9.590;2023-03-26T03:11:11;98421.72;;;9.05;39.52
72950;BME280;64868;45.710;9.590;2023-03-26T03:13:43;98422.94;;;9.01;38.83
72950;BME280;64868;45.710;9.590;2023-03-26T03:16:16;98400.44;;;8.75;40.02
72950;BME280;64868;45.710;9.590;2023-03-26T03:18:49;98406.28;;;8.82;40.14
72950;BME280;64868;45.710;9.590;2023-03-26T03:21:26;98415.59;;;9.14;38.45
72950;BME280;64868;45.710;9.590;2023-03-26T03:24:00;98417.31;;;9.15;39.03
72950;BME280;64868;45.710;9.590;2023-03-26T03:26:32;98412.91;;;8.90;40.67
72950;BME280;64868;45.710;9.590;2023-03-26T03:29:05;98386.84;;;8.75;39.16
72950;BME280;64868;45.710;9.590;2023-03-26T03:31:38;98419.28;;;8.89;40.35
72950;BME280;64868;45.710;9.590;2023-03-26T03:34:10;98418.97;;;8.70;41.60
72950;BME280;64868;45.710;9.590;2023-03-26T03:36:43;98402.94;;;8.54;41.11
72950;BME280;64868;45.710;9.590;2023-03-26T03:39:15;98415.66;;;8.77;40.13
72950;BME280;64868;45.710;9.590;2023-03-26T03:41:47;98415.06;;;8.37;41.05
72950;BME280;64868;45.710;9.590;2023-03-26T03:44:20;98423.59;;;8.44;41.64
72950;BME280;64868;45.710;9.590;2023-03-26T03:46:53;98415.38;;;8.45;42.00
72950;BME280;64868;45.710;9.590;2023-03-26T03:49:23;98418.09;;;8.45;41.73
72950;BME280;64868;45.710;9.590;2023-03-26T03:51:56;98399.41;;;8.28;42.54
72950;BME280;64868;45.710;9.590;2023-03-26T03:54:26;98415.47;;;8.44;43.59
72950;BME280;64868;45.710;9.590;2023-03-26T03:56:56;98417.22;;;8.45;42.58
72950;BME280;64868;45.710;9.590;2023-03-26T03:59:28;98416.56;;;8.41;44.27
72950;BME280;64868;45.710;9.590;2023-03-26T04:01:58;98413.72;;;8.43;42.34
72950;BME280;64868;45.710;9.590;2023-03-26T04:04:31;98420.03;;;8.43;43.39
72950;BME280;64868;45.710;9.590;2023-03-26T04:07:04;98425.13;;;8.48;42.24
72950;BME280;64868;45.710;9.590;2023-03-26T04:09:34;98412.34;;;8.37;42.36
72950;BME280;64868;45.710;9.590;2023-03-26T04:12:07;98428.72;;;8.36;42.69
72950;BME280;64868;45.710;9.590;2023-03-26T04:14:40;98444.28;;;8.34;43.12
72950;BME280;64868;45.710;9.590;2023-03-26T04:17:10;98419.19;;;8.17;44.26
72950;BME280;64868;45.710;9.590;2023-03-26T04:19:40;98423.13;;;8.13;43.68
72950;BME280;64868;45.710;9.590;2023-03-26T04:22:13;98436.13;;;8.21;45.47
72950;BME280;64868;45.710;9.590;2023-03-26T04:24:45;98447.75;;;8.10;45.98
72950;BME280;64868;45.710;9.590;2023-03-26T04:27:22;98440.28;;;8.01;45.70
72950;BME280;64868;45.710;9.590;2023-03-26T04:29:56;98428.66;;;7.99;45.42
72950;BME280;64868;45.710;9.590;2023-03-26T04:32:28;98405.34;;;7.71;45.71
72950;BME280;64868;45.710;9.590;2023-03-26T04:35:02;98419.59;;;7.62;46.45
72950;BME280;64868;45.710;9.590;2023-03-26T04:37:39;98410.03;;;7.43;47.92
72950;BME280;64868;45.710;9.590;2023-03-26T04:40:20;98438.75;;;7.46;46.72
72950;BME280;64868;45.710;9.590;2023-03-26T04:42:48;98440.06;;;7.40;47.73
72950;BME280;64868;45.710;9.590;2023-03-26T04:45:20;98444.63;;;7.40;48.02
72950;BME280;64868;45.710;9.590;2023-03-26T04:47:53;98404.16;;;7.24;47.01
72950;BME280;64868;45.710;9.590;2023-03-26T04:50:26;98437.16;;;7.43;47.20
72950;BME280;64868;45.710;9.590;2023-03-26T04:52:57;98425.53;;;7.28;46.40
72950;BME280;64868;45.710;9.590;2023-03-26T04:55:35;98436.59;;;7.38;46.78
72950;BME280;64868;45.710;9.590;2023-03-26T04:58:07;98434.44;;;7.43;46.87
72950;BME280;64868;45.710;9.590;2023-03-26T05:00:39;98430.09;;;7.41;46.28
72950;BME280;64868;45.710;9.590;2023-03-26T05:03:15;98431.16;;;7.38;45.73
72950;BME280;64868;45.710;9.590;2023-03-26T05:05:45;98426.72;;;7.37;46.95
72950;BME280;64868;45.710;9.590;2023-03-26T05:08:16;98431.16;;;7.38;46.73
72950;BME280;64868;45.710;9.590;2023-03-26T05:10:46;98433.91;;;7.51;47.35
72950;BME280;64868;45.710;9.590;2023-03-26T05:13:16;98411.31;;;7.38;46.95
72950;BME280;64868;45.710;9.590;2023-03-26T05:15:48;98414.25;;;7.47;47.28
72950;BME280;64868;45.710;9.590;2023-03-26T05:18:21;98436.41;;;7.54;47.59
72950;BME280;64868;45.710;9.590;2023-03-26T05:20:52;98416.66;;;7.52;46.12
72950;BME280;64868;45.710;9.590;2023-03-26T05:23:24;98424.38;;;7.58;45.28
72950;BME280;64868;45.710;9.590;2023-03-26T05:25:55;98388.13;;;7.46;45.71
72950;BME280;64868;45.710;9.590;2023-03-26T05:28:25;98424.47;;;7.69;46.53
72950;BME280;64868;45.710;9.590;2023-03-26T05:30:58;98434.34;;;7.70;45.56
72950;BME280;64868;45.710;9.590;2023-03-26T05:33:30;98433.34;;;7.71;46.71
72950;BME280;64868;45.710;9.590;2023-03-26T05:36:02;98418.28;;;7.67;46.05
72950;BME280;64868;45.710;9.590;2023-03-26T05:38:35;98435.28;;;7.95;46.50
72950;BME280;64868;45.710;9.590;2023-03-26T05:41:08;98418.78;;;7.98;44.54
72950;BME280;64868;45.710;9.590;2023-03-26T05:43:41;98423.41;;;8.21;45.09
72950;BME280;64868;45.710;9.590;2023-03-26T05:46:11;98425.91;;;8.24;46.08
72950;BME280;64868;45.710;9.590;2023-03-26T05:48:43;98412.56;;;8.21;44.16
72950;BME280;64868;45.710;9.590;2023-03-26T05:51:11;98425.69;;;8.27;44.93
72950;BME280;64868;45.710;9.590;2023-03-26T05:53:45;98418.31;;;8.42;43.14
72950;BME280;64868;45.710;9.590;2023-03-26T05:56:17;98434.75;;;8.65;43.89
72950;BME280;64868;45.710;9.590;2023-03-26T05:58:50;98414.00;;;8.64;42.42
72950;BME280;64868;45.710;9.590;2023-03-26T06:01:18;98424.16;;;8.97;41.40
72950;BME280;64868;45.710;9.590;2023-03-26T06:03:49;98418.34;;;8.90;41.61
72950;BME280;64868;45.710;9.590;2023-03-26T06:06:21;98393.66;;;9.05;40.76
72950;BME280;64868;45.710;9.590;2023-03-26T06:08:54;98409.91;;;9.17;41.56
72950;BME280;64868;45.710;9.590;2023-03-26T06:11:24;98406.44;;;9.15;41.16
72950;BME280;64868;45.710;9.590;2023-03-26T06:13:52;98401.75;;;9.17;41.22
72950;BME280;64868;45.710;9.590;2023-03-26T06:16:24;98383.72;;;9.27;40.90
72950;BME280;64868;45.710;9.590;2023-03-26T06:18:57;98393.41;;;9.54;40.36
72950;BME280;64868;45.710;9.590;2023-03-26T06:21:25;98400.41;;;9.92;39.83
72950;BME280;64868;45.710;9.590;2023-03-26T06:23:54;98400.53;;;10.24;39.44
72950;BME280;64868;45.710;9.590;2023-03-26T06:26:25;98398.53;;;10.48;38.67
72950;BME280;64868;45.710;9.590;2023-03-26T06:28:57;98387.97;;;10.66;37.63
72950;BME280;64868;45.710;9.590;2023-03-26T06:31:30;98397.59;;;10.82;36.98
72950;BME280;64868;45.710;9.590;2023-03-26T06:34:03;98382.97;;;10.71;37.33
72950;BME280;64868;45.710;9.590;2023-03-26T06:36:35;98390.00;;;10.85;37.61
72950;BME280;64868;45.710;9.590;2023-03-26T06:39:05;98388.72;;;11.01;36.52
72950;BME280;64868;45.710;9.590;2023-03-26T06:41:38;98383.09;;;11.55;35.71
72950;BME280;64868;45.710;9.590;2023-03-26T06:44:08;98366.06;;;11.84;34.41
72950;BME280;64868;45.710;9.590;2023-03-26T06:46:41;98378.94;;;11.82;34.95
72950;BME280;64868;45.710;9.590;2023-03-26T06:49:13;98362.84;;;11.79;35.02
72950;BME280;64868;45.710;9.590;2023-03-26T06:51:44;98374.97;;;12.66;34.91
72950;BME280;64868;45.710;9.590;2023-03-26T06:54:16;98363.31;;;18.14;26.08
72950;BME280;64868;45.710;9.590;2023-03-26T06:56:49;98378.00;;;22.68;19.86
72950;BME280;64868;45.710;9.590;2023-03-26T06:59:19;98364.34;;;23.21;19.15
72950;BME280;64868;45.710;9.590;2023-03-26T07:01:52;98384.06;;;23.26;18.26
72950;BME280;64868;45.710;9.590;2023-03-26T07:04:22;98339.16;;;21.62;20.33
72950;BME280;64868;45.710;9.590;2023-03-26T07:06:55;98360.78;;;26.52;15.07
72950;BME280;64868;45.710;9.590;2023-03-26T07:09:22;98379.00;;;27.64;14.84
72950;BME280;64868;45.710;9.590;2023-03-26T07:11:55;98367.88;;;27.09;14.85
72950;BME280;64868;45.710;9.590;2023-03-26T07:14:23;98363.56;;;25.38;17.28
72950;BME280;64868;45.710;9.590;2023-03-26T07:16:59;98339.56;;;25.31;16.53
72950;BME280;64868;45.710;9.590;2023-03-26T07:19:32;98350.84;;;23.05;19.08
72950;BME280;64868;45.710;9.590;2023-03-26T07:22:02;98336.16;;;24.70;17.57
72950;BME280;64868;45.710;9.590;2023-03-26T07:24:34;98356.22;;;28.03;14.49
72950;BME280;64868;45.710;9.590;2023-03-26T07:29:57;98368.91;;;30.20;12.45
72950;BME280;64868;45.710;9.590;2023-03-26T07:32:55;98345.00;;;31.83;11.58
72950;BME280;64868;45.710;9.590;2023-03-26T07:35:35;98333.31;;;29.97;12.83
72950;BME280;64868;45.710;9.590;2023-03-26T07:41:17;98333.56;;;30.80;12.57
72950;BME280;64868;45.710;9.590;2023-03-26T07:46:49;98334.19;;;30.48;12.58
72950;BME280;64868;45.710;9.590;2023-03-26T07:49:22;98333.06;;;34.08;10.32
72950;BME280;64868;45.710;9.590;2023-03-26T07:51:50;98305.03;;;34.68;10.34
72950;BME280;64868;45.710;9.590;2023-03-26T07:54:21;98326.56;;;35.60;10.69
72950;BME280;64868;45.710;9.590;2023-03-26T07:57:13;98297.72;;;39.11;8.58
72950;BME280;64868;45.710;9.590;2023-03-26T08:05:38;98239.09;;;32.77;14.52
72950;BME280;64868;45.710;9.590;2023-03-26T08:08:26;98288.31;;;36.65;11.58
72950;BME280;64868;45.710;9.590;2023-03-26T08:16:52;98298.16;;;36.14;11.23
72950;BME280;64868;45.710;9.590;2023-03-26T08:22:03;98293.31;;;32.05;14.59
72950;BME280;64868;45.710;9.590;2023-03-26T08:27:38;98291.31;;;31.46;14.51
72950;BME280;64868;45.710;9.590;2023-03-26T08:30:18;98279.41;;;35.74;11.64
72950;BME280;64868;45.710;9.590;2023-03-26T08:33:01;98287.59;;;38.91;10.05
72950;BME280;64868;45.710;9.590;2023-03-26T08:35:34;98280.31;;;38.33;9.61
72950;BME280;64868;45.710;9.590;2023-03-26T08:38:06;98286.03;;;36.91;11.12
72950;BME280;64868;45.710;9.590;2023-03-26T08:40:48;98274.84;;;39.80;9.58
72950;BME280;64868;45.710;9.590;2023-03-26T09:00:41;98245.88;;;38.95;10.41
72950;BME280;64868;45.710;9.590;2023-03-26T09:03:22;98253.66;;;39.95;9.86
72950;BME280;64868;45.710;9.590;2023-03-26T09:06:31;98235.72;;;32.38;14.84
72950;BME280;64868;45.710;9.590;2023-03-26T09:17:57;98208.06;;;26.32;20.85
72950;BME280;64868;45.710;9.590;2023-03-26T09:21:08;98180.03;;;29.27;18.57
72950;BME280;64868;45.710;9.590;2023-03-26T09:29:39;98178.56;;;35.13;13.40
72950;BME280;64868;45.710;9.590;2023-03-26T09:32:46;98187.34;;;30.29;17.58
72950;BME280;64868;45.710;9.590;2023-03-26T09:35:47;98201.91;;;31.63;16.30
72950;BME280;64868;45.710;9.590;2023-03-26T09:46:57;98166.88;;;28.42;20.11
72950;BME280;64868;45.710;9.590;2023-03-26T09:49:40;98167.63;;;25.80;22.83
72950;BME280;64868;45.710;9.590;2023-03-26T09:52:34;98148.41;;;21.65;29.58
72950;BME280;64868;45.710;9.590;2023-03-26T09:55:43;98146.34;;;24.40;25.55
72950;BME280;64868;45.710;9.590;2023-03-26T09:58:36;98136.28;;;27.23;21.31
72950;BME280;64868;45.710;9.590;2023-03-26T10:01:29;98133.34;;;25.22;24.80
72950;BME280;64868;45.710;9.590;2023-03-26T10:04:18;98140.91;;;20.81;30.68
72950;BME280;64868;45.710;9.590;2023-03-26T10:07:03;98116.28;;;20.93;31.68
72950;BME280;64868;45.710;9.590;2023-03-26T10:18:13;98114.22;;;17.74;37.29
72950;BME280;64868;45.710;9.590;2023-03-26T10:21:05;98145.41;;;16.70;40.11
72950;BME280;64868;45.710;9.590;2023-03-26T10:23:52;98135.13;;;16.56;40.63
72950;BME280;64868;45.710;9.590;2023-03-26T10:26:42;98127.88;;;16.30;41.89
72950;BME280;64868;45.710;9.590;2023-03-26T10:29:25;98141.28;;;16.41;41.52
72950;BME280;64868;45.710;9.590;2023-03-26T10:32:40;98141.63;;;16.38;41.88
72950;BME280;64868;45.710;9.590;2023-03-26T10:35:25;98116.44;;;15.84;43.65
72950;BME280;64868;45.710;9.590;2023-03-26T10:41:00;98110.00;;;16.34;43.14
72950;BME280;64868;45.710;9.590;2023-03-26T10:49:44;98082.81;;;16.39;42.63
72950;BME280;64868;45.710;9.590;2023-03-26T10:52:21;98071.47;;;16.18;43.48
72950;BME280;64868;45.710;9.590;2023-03-26T10:55:06;98063.56;;;16.23;43.48
72950;BME280;64868;45.710;9.590;2023-03-26T10:57:50;98062.72;;;16.30;43.82
72950;BME280;64868;45.710;9.590;2023-03-26T11:00:27;98069.06;;;16.31;44.44
72950;BME280;64868;45.710;9.590;2023-03-26T11:06:01;98076.56;;;15.80;45.68
72950;BME280;64868;45.710;9.590;2023-03-26T11:20:57;98066.66;;;16.52;45.26
72950;BME280;64868;45.710;9.590;2023-03-26T11:23:40;98056.34;;;16.46;45.64
72950;BME280;64868;45.710;9.590;2023-03-26T11:26:24;98075.25;;;16.58;44.69
72950;BME280;64868;45.710;9.590;2023-03-26T11:34:34;98066.97;;;16.90;44.25
72950;BME280;64868;45.710;9.590;2023-03-26T11:37:10;98061.75;;;17.03;44.40
72950;BME280;64868;45.710;9.590;2023-03-26T11:39:47;98055.19;;;17.21;43.62
72950;BME280;64868;45.710;9.590;2023-03-26T11:42:22;98040.00;;;17.25;44.21
72950;BME280;64868;45.710;9.590;2023-03-26T11:45:00;98049.75;;;18.06;42.67
72950;BME280;64868;45.710;9.590;2023-03-26T11:47:44;98034.59;;;18.25;41.79
72950;BME280;64868;45.710;9.590;2023-03-26T11:50:25;98048.66;;;18.15;41.60
72950;BME280;64868;45.710;9.590;2023-03-26T11:53:20;98040.47;;;18.22;42.40
72950;BME280;64868;45.710;9.590;2023-03-26T11:56:02;98038.28;;;17.94;41.74
72950;BME280;64868;45.710;9.590;2023-03-26T11:58:34;98047.34;;;17.41;43.09
72950;BME280;64868;45.710;9.590;2023-03-26T12:01:16;98030.34;;;17.29;43.45
72950;BME280;64868;45.710;9.590;2023-03-26T12:04:11;98036.78;;;17.52;44.21
72950;BME280;64868;45.710;9.590;2023-03-26T12:06:51;98013.25;;;17.02;45.08
72950;BME280;64868;45.710;9.590;2023-03-26T12:09:19;98003.31;;;16.93;45.35
72950;BME280;64868;45.710;9.590;2023-03-26T12:11:51;97999.94;;;16.42;46.28
72950;BME280;64868;45.710;9.590;2023-03-26T12:14:22;98002.72;;;17.06;45.61
72950;BME280;64868;45.710;9.590;2023-03-26T12:17:10;97977.69;;;16.85;44.83
72950;BME280;64868;45.710;9.590;2023-03-26T12:19:43;97993.13;;;17.02;44.58
72950;BME280;64868;45.710;9.590;2023-03-26T12:22:36;97981.91;;;17.03;45.02
72950;BME280;64868;45.710;9.590;2023-03-26T12:28:00;97976.25;;;16.33;46.68
72950;BME280;64868;45.710;9.590;2023-03-26T12:30:32;97970.88;;;16.40;45.57
72950;BME280;64868;45.710;9.590;2023-03-26T12:33:09;97959.38;;;16.44;46.08
72950;BME280;64868;45.710;9.590;2023-03-26T12:35:45;97967.59;;;16.52;46.18
72950;BME280;64868;45.710;9.590;2023-03-26T12:38:32;97941.59;;;16.63;45.48
72950;BME280;64868;45.710;9.590;2023-03-26T12:41:13;97947.09;;;16.55;46.14
72950;BME280;64868;45.710;9.590;2023-03-26T12:43:48;97938.03;;;16.46;45.63
72950;BME280;64868;45.710;9.590;2023-03-26T12:46:34;97943.41;;;16.23;46.54
72950;BME280;64868;45.710;9.590;2023-03-26T12:49:05;97936.03;;;16.16;46.91
72950;BME280;64868;45.710;9.590;2023-03-26T12:51:57;97942.22;;;16.01;48.68
72950;BME280;64868;45.710;9.590;2023-03-26T12:54:44;97919.72;;;15.90;48.13
72950;BME280;64868;45.710;9.590;2023-03-26T12:57:19;97910.97;;;15.78;48.59
72950;BME280;64868;45.710;9.590;2023-03-26T13:00:16;97933.66;;;15.96;48.62
72950;BME280;64868;45.710;9.590;2023-03-26T13:06:04;97917.84;;;15.90;49.67
72950;BME280;64868;45.710;9.590;2023-03-26T13:09:17;97910.63;;;15.81;50.63
72950;BME280;64868;45.710;9.590;2023-03-26T13:12:02;97886.91;;;15.72;50.01
72950;BME280;64868;45.710;9.590;2023-03-26T13:18:36;97900.84;;;15.70;51.03
72950;BME280;64868;45.710;9.590;2023-03-26T13:20:50;97897.22;;;15.62;52.51
72950;BME280;64868;45.710;9.590;2023-03-26T13:29:33;97911.09;;;15.27;52.75
72950;BME280;64868;45.710;9.590;2023-03-26T13:32:21;97910.66;;;14.98;53.95
72950;BME280;64868;45.710;9.590;2023-03-26T13:35:11;97916.59;;;14.77;55.31
72950;BME280;64868;45.710;9.590;2023-03-26T13:43:56;97902.03;;;14.16;59.75
72950;BME280;64868;45.710;9.590;2023-03-26T13:46:36;97894.56;;;13.74;63.64
72950;BME280;64868;45.710;9.590;2023-03-26T13:56:51;97885.25;;;12.78;67.89
72950;BME280;64868;45.710;9.590;2023-03-26T13:59:53;97893.59;;;12.76;68.16
72950;BME280;64868;45.710;9.590;2023-03-26T14:02:43;97877.75;;;12.52;67.58
72950;BME280;64868;45.710;9.590;2023-03-26T14:05:20;97904.59;;;12.39;68.65
72950;BME280;64868;45.710;9.590;2023-03-26T14:07:54;97900.66;;;12.14;71.25
72950;BME280;64868;45.710;9.590;2023-03-26T14:10:29;97888.78;;;12.05;69.67
72950;BME280;64868;45.710;9.590;2023-03-26T14:15:55;97859.81;;;11.65;71.86
72950;BME280;64868;45.710;9.590;2023-03-26T14:19:33;97903.31;;;11.77;71.21
72950;BME280;64868;45.710;9.590;2023-03-26T14:25:09;97911.56;;;11.48;74.75
72950;BME280;64868;45.710;9.590;2023-03-26T14:41:29;97877.38;;;11.53;68.09
72950;BME280;64868;45.710;9.590;2023-03-26T14:49:43;97865.03;;;11.49;65.36
72950;BME280;64868;45.710;9.590;2023-03-26T14:52:50;97852.41;;;11.38;67.76
72950;BME280;64868;45.710;9.590;2023-03-26T14:55:44;97828.13;;;11.35;66.82
72950;BME280;64868;45.710;9.590;2023-03-26T15:01:22;97775.19;;;11.18;66.29
72950;BME280;64868;45.710;9.590;2023-03-26T15:04:38;97755.06;;;11.19;67.20
72950;BME280;64868;45.710;9.590;2023-03-26T15:13:39;97744.31;;;11.55;67.16
72950;BME280;64868;45.710;9.590;2023-03-26T15:19:29;97671.53;;;11.46;63.92
72950;BME280;64868;45.710;9.590;2023-03-26T15:45:38;97697.50;;;11.23;64.58
72950;BME280;64868;45.710;9.590;2023-03-26T15:48:16;97691.31;;;11.20;64.64
72950;BME280;64868;45.710;9.590;2023-03-26T15:50:52;97674.47;;;11.35;62.69
72950;BME280;64868;45.710;9.590;2023-03-26T15:59:20;97633.81;;;11.32;65.47
72950;BME280;64868;45.710;9.590;2023-03-26T16:02:01;97627.88;;;11.18;65.51
72950;BME280;64868;45.710;9.590;2023-03-26T16:04:52;97622.69;;;11.25;64.93
72950;BME280;64868;45.710;9.590;2023-03-26T16:15:50;97622.81;;;11.24;64.01
72950;BME280;64868;45.710;9.590;2023-03-26T16:18:32;97581.88;;;10.96;63.11
72950;BME280;64868;45.710;9.590;2023-03-26T16:21:31;97615.47;;;10.96;64.87
72950;BME280;64868;45.710;9.590;2023-03-26T16:23:54;97654.72;;;11.13;64.97
72950;BME280;64868;45.710;9.590;2023-03-26T16:29:19;97613.41;;;11.08;64.71
72950;BME280;64868;45.710;9.590;2023-03-26T16:32:11;97601.38;;;11.29;64.28
72950;BME280;64868;45.710;9.590;2023-03-26T16:34:53;97614.22;;;11.46;63.67
72950;BME280;64868;45.710;9.590;2023-03-26T16:37:39;97623.09;;;11.20;65.71
72950;BME280;64868;45.710;9.590;2023-03-26T16:40:26;97638.88;;;11.27;66.08
72950;BME280;64868;45.710;9.590;2023-03-26T16:43:03;97626.34;;;11.06;67.55
72950;BME280;64868;45.710;9.590;2023-03-26T16:45:47;97585.91;;;10.92;66.94
72950;BME280;64868;45.710;9.590;2023-03-26T16:48:24;97590.47;;;11.01;68.53
72950;BME280;64868;45.710;9.590;2023-03-26T16:51:32;97610.47;;;10.92;69.52
72950;BME280;64868;45.710;9.590;2023-03-26T16:56:52;97579.06;;;10.88;69.24
72950;BME280;64868;45.710;9.590;2023-03-26T17:02:27;97587.81;;;10.82;69.91
72950;BME280;64868;45.710;9.590;2023-03-26T17:10:55;97551.94;;;11.41;65.92
72950;BME280;64868;45.710;9.590;2023-03-26T17:13:35;97557.59;;;11.30;64.40
72950;BME280;64868;45.710;9.590;2023-03-26T17:16:17;97555.13;;;11.09;65.65
72950;BME280;64868;45.710;9.590;2023-03-26T17:19:04;97533.28;;;11.09;66.02
72950;BME280;64868;45.710;9.590;2023-03-26T17:24:47;97543.97;;;10.65;68.34
72950;BME280;64868;45.710;9.590;2023-03-26T17:27:37;97541.75;;;10.41;69.84
72950;BME280;64868;45.710;9.590;2023-03-26T17:33:13;97524.53;;;10.51;69.55
72950;BME280;64868;45.710;9.590;2023-03-26T17:35:50;97497.59;;;10.38;69.55
72950;BME280;64868;45.710;9.590;2023-03-26T17:40:50;97503.38;;;10.25;68.56
72950;BME280;64868;45.710;9.590;2023-03-26T17:43:49;97541.50;;;10.35;70.48
72950;BME280;64868;45.710;9.590;2023-03-26T17:46:40;97551.78;;;10.21;70.81
72950;BME280;64868;45.710;9.590;2023-03-26T17:49:29;97550.09;;;10.20;70.67
72950;BME280;64868;45.710;9.590;2023-03-26T17:52:02;97535.16;;;10.15;69.24
72950;BME280;64868;45.710;9.590;2023-03-26T17:54:47;97533.47;;;10.14;68.00
72950;BME280;64868;45.710;9.590;2023-03-26T17:57:20;97520.28;;;10.09;68.04
72950;BME280;64868;45.710;9.590;2023-03-26T17:59:54;97517.41;;;10.11;68.83
72950;BME280;64868;45.710;9.590;2023-03-26T18:02:47;97511.56;;;9.96;69.32
72950;BME280;64868;45.710;9.590;2023-03-26T18:05:24;97537.06;;;10.05;69.64
72950;BME280;64868;45.710;9.590;2023-03-26T18:08:07;97535.06;;;9.97;69.47
72950;BME280;64868;45.710;9.590;2023-03-26T18:10:57;97528.63;;;9.98;69.94